createdAt,value
2018-12-25T00:01:13.337Z,4.63
2018-12-25T00:03:41.479Z,3.50
2018-12-25T00:06:09.640Z,3.23
2018-12-25T00:08:37.805Z,5.33
2018-12-25T00:11:05.954Z,2.90
2018-12-25T00:13:35.516Z,2.80
2018-12-25T00:16:03.685Z,3.60
2018-12-25T00:18:31.830Z,2.97
2018-12-25T00:20:59.971Z,6.00
2018-12-25T00:23:28.137Z,3.90
2018-12-25T00:25:56.281Z,2.80
2018-12-25T00:28:25.387Z,2.37
2018-12-25T00:30:53.569Z,4.10
2018-12-25T00:33:21.705Z,1.77
2018-12-25T00:35:49.847Z,2.43
2018-12-25T00:38:18.019Z,2.73
2018-12-25T00:40:46.153Z,2.43
2018-12-25T00:43:14.308Z,1.53
2018-12-25T00:45:42.594Z,3.53
2018-12-25T00:48:10.729Z,1.87
2018-12-25T00:50:38.865Z,3.27
2018-12-25T00:53:07.070Z,2.57
2018-12-25T00:55:35.217Z,2.17
2018-12-25T00:58:03.369Z,2.63
2018-12-25T01:00:36.244Z,3.73
2018-12-25T01:03:04.865Z,4.23
2018-12-25T01:05:33.306Z,2.87
2018-12-25T01:08:01.701Z,2.43
2018-12-25T01:10:29.849Z,1.93
2018-12-25T01:12:57.989Z,5.30
2018-12-25T01:15:26.285Z,1.43
2018-12-25T01:17:54.421Z,2.07
2018-12-25T01:20:22.565Z,4.20
2018-12-25T01:22:50.742Z,3.10
2018-12-25T01:25:18.881Z,7.03
2018-12-25T01:27:47.220Z,2.80
2018-12-25T01:30:15.393Z,1.90
2018-12-25T01:32:43.530Z,2.20
2018-12-25T01:35:11.668Z,1.10
2018-12-25T01:37:39.824Z,1.73
2018-12-25T01:40:07.968Z,2.20
2018-12-25T01:42:36.117Z,8.43
2018-12-25T01:45:05.162Z,2.77
2018-12-25T01:47:33.323Z,2.97
2018-12-25T01:50:01.446Z,1.90
2018-12-25T01:52:29.623Z,1.97
2018-12-25T01:55:17.190Z,1.83
2018-12-25T10:11:46.909Z,26.20
2018-12-25T10:14:27.325Z,23.73
2018-12-25T10:17:05.370Z,24.60
2018-12-25T13:54:34.356Z,13.43
2018-12-25T13:57:02.497Z,13.60
2018-12-25T13:59:30.661Z,15.13
2018-12-25T14:01:58.837Z,12.73
2018-12-25T14:04:27.044Z,16.90
2018-12-25T14:06:55.142Z,16.30
2018-12-25T14:09:23.382Z,15.17
2018-12-25T14:11:51.528Z,14.37
2018-12-25T14:14:19.677Z,12.03
2018-12-25T14:16:49.720Z,16.83
2018-12-25T14:19:17.805Z,14.60
2018-12-25T14:21:45.955Z,13.10
2018-12-25T14:24:14.140Z,12.67
2018-12-25T14:26:42.312Z,17.50
2018-12-25T14:29:10.477Z,14.30
2018-12-25T14:31:38.657Z,13.50
2018-12-25T14:34:06.813Z,18.73
2018-12-25T14:36:36.181Z,19.80
2018-12-25T14:39:05.911Z,19.13
2018-12-25T14:41:34.071Z,14.07
2018-12-25T14:44:05.307Z,18.67
2018-12-25T14:46:33.859Z,17.40
2018-12-25T14:49:01.997Z,14.10
2018-12-25T14:51:30.142Z,15.90
2018-12-25T14:53:58.329Z,17.47
2018-12-25T14:56:26.479Z,13.90
2018-12-25T14:58:54.724Z,17.27
2018-12-25T15:01:23.294Z,17.37
2018-12-25T15:03:51.436Z,19.33
2018-12-25T15:06:19.582Z,18.30
2018-12-25T15:08:48.109Z,18.60
2018-12-25T15:11:16.258Z,19.80
2018-12-25T15:13:44.401Z,15.33
2018-12-25T15:16:12.573Z,18.47
2018-12-25T15:18:40.718Z,15.10
2018-12-25T15:21:08.861Z,17.33
2018-12-25T15:23:37.040Z,23.60
2018-12-25T15:26:05.197Z,17.10
2018-12-25T15:28:34.823Z,24.90
2018-12-25T15:31:05.797Z,18.40
2018-12-25T15:33:33.944Z,21.37
2018-12-25T15:36:02.085Z,17.23
2018-12-25T15:38:30.284Z,22.03
2018-12-25T15:40:58.426Z,18.17
2018-12-25T15:43:26.572Z,17.63
2018-12-25T15:45:54.740Z,26.50
2018-12-25T15:48:22.893Z,26.03
2018-12-25T15:50:51.040Z,23.00
2018-12-25T15:53:19.520Z,23.07
2018-12-25T15:55:47.670Z,23.87
2018-12-25T15:58:16.482Z,22.07
2018-12-25T16:00:45.930Z,20.73
2018-12-25T16:03:14.085Z,22.00
2018-12-25T16:05:42.233Z,21.17
2018-12-25T16:08:10.434Z,23.40
2018-12-25T16:10:38.586Z,21.83
2018-12-25T16:13:06.740Z,19.37
2018-12-25T16:15:34.922Z,22.40
2018-12-25T16:18:03.070Z,20.23
2018-12-25T16:20:32.688Z,21.33
2018-12-25T16:23:00.860Z,22.70
2018-12-25T16:25:29.318Z,21.93
2018-12-25T16:27:57.598Z,20.87
2018-12-25T16:30:25.853Z,24.73
2018-12-25T16:32:54.006Z,24.23
2018-12-25T16:35:22.161Z,22.97
2018-12-25T16:37:50.333Z,23.30
2018-12-25T16:40:18.482Z,23.30
2018-12-25T16:42:46.629Z,38.57
2018-12-25T16:45:14.809Z,33.47
2018-12-25T16:47:42.961Z,23.00
2018-12-25T16:50:11.242Z,24.17
2018-12-25T16:52:39.413Z,23.43
2018-12-25T16:55:07.553Z,24.27
2018-12-25T16:57:35.698Z,24.90
2018-12-25T17:00:04.877Z,26.47
2018-12-25T17:02:33.026Z,24.57
2018-12-25T17:05:01.178Z,24.07
2018-12-25T17:07:29.374Z,25.30
2018-12-25T17:09:57.530Z,25.83
2018-12-25T17:12:25.677Z,24.37
2018-12-25T17:14:55.492Z,24.87
2018-12-25T17:17:25.294Z,22.60
2018-12-25T17:19:53.448Z,24.33
2018-12-25T17:22:22.084Z,23.70
2018-12-25T17:24:50.286Z,25.37
2018-12-25T17:27:18.420Z,23.17
2018-12-25T17:29:46.606Z,20.23
2018-12-25T17:32:14.749Z,24.60
2018-12-25T17:34:43.802Z,24.07
2018-12-25T17:37:12.008Z,23.20
2018-12-25T17:39:40.153Z,23.33
2018-12-25T17:42:08.297Z,24.03
2018-12-25T17:44:36.470Z,25.40
2018-12-25T17:47:04.634Z,25.93
2018-12-25T17:49:32.782Z,24.00
2018-12-25T17:52:00.957Z,25.80
2018-12-25T17:54:29.106Z,20.77
2018-12-25T17:56:57.265Z,22.60
2018-12-25T17:59:25.445Z,20.27
2018-12-25T18:01:53.593Z,25.47
2018-12-25T18:04:21.733Z,20.77
2018-12-25T18:06:49.910Z,25.53
2018-12-25T18:09:18.090Z,24.47
2018-12-25T18:11:46.214Z,29.53
2018-12-25T18:14:14.393Z,21.23
2018-12-25T18:16:42.545Z,21.70
2018-12-25T18:19:10.732Z,22.23
2018-12-25T18:21:38.906Z,20.57
2018-12-25T18:24:08.691Z,23.07
2018-12-25T18:35:59.538Z,19.43
2018-12-25T18:41:41.864Z,18.83
2018-12-25T18:44:30.228Z,19.53
2018-12-25T19:01:56.380Z,21.33
2018-12-25T19:04:44.816Z,18.83
2018-12-25T21:24:13.697Z,21.93
2018-12-25T21:27:00.133Z,21.80
2018-12-25T21:29:28.315Z,19.13
2018-12-25T21:31:56.456Z,19.57
2018-12-25T21:34:24.605Z,22.03
2018-12-25T21:36:52.781Z,25.17
2018-12-25T21:39:20.941Z,22.20
2018-12-25T21:41:49.105Z,25.27
2018-12-25T21:44:17.353Z,24.53
2018-12-25T21:46:45.504Z,22.67
2018-12-25T21:49:13.777Z,22.40
2018-12-25T21:51:41.956Z,20.87
2018-12-25T21:54:10.101Z,26.93
2018-12-25T21:56:38.259Z,23.70
2018-12-25T21:59:06.432Z,23.03
2018-12-25T22:01:35.703Z,22.27
2018-12-25T22:04:03.851Z,20.90
2018-12-25T22:06:32.027Z,22.37
2018-12-25T22:09:00.183Z,17.03
2018-12-25T22:11:28.346Z,19.07
2018-12-25T22:13:56.528Z,20.47
2018-12-25T22:16:24.725Z,21.13
2018-12-25T22:18:52.945Z,16.33
2018-12-25T22:21:21.141Z,22.73
2018-12-25T22:23:49.287Z,22.27
2018-12-25T22:26:17.450Z,22.33
2018-12-25T22:28:45.692Z,18.40
2018-12-25T22:31:13.849Z,20.17
2018-12-25T22:33:41.998Z,23.07
2018-12-25T22:36:10.185Z,21.60
2018-12-25T22:38:38.330Z,19.23
2018-12-25T22:41:06.478Z,21.60
2018-12-25T22:43:34.706Z,19.00
2018-12-25T22:46:02.853Z,19.40
2018-12-25T22:48:31.851Z,20.07
2018-12-25T22:51:00.027Z,20.63
2018-12-25T22:53:28.193Z,21.37
2018-12-25T22:56:29.866Z,22.17
